Flight Track Log - Related Links

Times and Time Zones

All times are in EDT time to prevent confusion due to time zone crossing. See the AAY615 flight status page for this flight to view local times or setup timezone preferences in your user account.

Time Position Orientation Groundspeed Altitude Reporting Facility
EDT Latitude Longitude Course Direction KTS MPH feet Rate Location/Type
Thu 11:32:04 AM 39.8042 -82.9383 224° Southwest 174 200 1,200  Level Indianapolis Center
Thu 11:33:12 AM 39.7650 -82.9869 224° Southwest 194 223 3,100 1,872 Climbing Indianapolis Center
Thu 11:33:53 AM 39.7156 -82.9839 177° South 280 322 4,600 1,403 Climbing Indianapolis Center
Thu 11:35:16 AM 39.6350 -82.9064 143° Southeast 288 331 6,000 1,697 Climbing Indianapolis Center
Thu 11:36:18 AM 39.5717 -82.8431 142° Southeast 287 330 8,700 2,177 Climbing Indianapolis Center
Thu 11:37:20 AM 39.4981 -82.7839 148° Southeast 313 360 10,500 1,742 Climbing Indianapolis Center
Thu 11:38:22 AM 39.3803 -82.8133 191° South 374 430 12,300 2,032 Climbing Indianapolis Center
Thu 11:39:24 AM 39.2817 -82.8836 209° Southwest 399 459 14,700 2,274 Climbing Indianapolis Center
Thu 11:40:26 AM 39.1797 -82.9536 208° Southwest 409 471 17,000 1,790 Climbing Indianapolis Center
Thu 11:41:28 AM 39.0844 -83.0133 206° Southwest 414 476 18,400 1,645 Climbing Indianapolis Center
Thu 11:42:30 AM 38.9386 -83.0608 194° South 447 514 20,400 1,645 Climbing Indianapolis Center
Thu 11:43:32 AM 38.8147 -83.0944 192° South 452 520 21,800 1,306 Climbing Indianapolis Center
Thu 11:44:34 AM 38.6883 -83.1319 193° South 466 536 23,100 1,210 Climbing Indianapolis Center
Thu 11:45:36 AM 38.5564 -83.1689 192° South 481 554 24,300 1,366 Climbing Indianapolis Center
Thu 11:46:37 AM 38.4228 -83.2072 193° South 490 564 25,900 1,659 Climbing Indianapolis Center
Thu 11:47:39 AM 38.2708 -83.2511 193° South 479 551 27,700 1,065 Climbing Indianapolis Center
Thu 11:48:41 AM 38.1394 -83.2894 193° South 483 556 28,100 435 Climbing Indianapolis Center
Thu 11:49:43 AM 38.0089 -83.3253 192° South 481 554 28,600 1,016 Climbing Indianapolis Center
Thu 11:50:45 AM 37.8761 -83.3625 192° South 487 560 30,200 1,210 Climbing Indianapolis Center
Thu 11:51:47 AM 37.7456 -83.3975 192° South 479 551 31,100 919 Climbing Indianapolis Center
Thu 11:52:49 AM 37.5928 -83.4403 193° South 481 554 32,100 871 Climbing Indianapolis Center
Thu 11:53:51 AM 37.4631 -83.4756 192° South 479 551 32,900 435 Climbing Indianapolis Center
Thu 11:54:53 AM 37.3336 -83.5122 193° South 477 549 33,000 48 Climbing Indianapolis Center
Thu 11:55:55 AM 37.2011 -83.5481 192° South 484 557 33,000  Level Indianapolis Center
Thu 11:56:57 AM 37.0683 -83.5839 192° South 488 562 33,000  Level Indianapolis Center
Thu 11:57:59 AM 36.9133 -83.6269 193° South 491 565 33,000  Level Indianapolis Center
Thu 11:59:01 AM 36.7808 -83.6631 192° South 490 564 33,000  Level Indianapolis Center
Thu 12:00:03 PM 36.6500 -83.6983 192° South 483 556 33,000  Level Indianapolis Center
Thu 12:01:05 PM 36.5211 -83.7333 192° South 477 549 33,000  Level Indianapolis Center
Thu 12:02:07 PM 36.3828 -83.7683 192° South 475 547 33,000  Level Indianapolis Center
Thu 12:03:09 PM 36.2542 -83.8022 192° South 471 542 33,000  Level Indianapolis Center
Thu 12:04:11 PM 36.1253 -83.8375 192° South 472 543 33,000  Level Indianapolis Center
Thu 12:05:13 PM 35.9953 -83.8728 192° South 476 548 33,000  Level Indianapolis Center
Thu 12:06:14 PM 35.8672 -83.9056 192° South 470 541 33,000  Level Indianapolis Center
Thu 12:07:09 PM 35.7308 -83.9389 191° South 469 540 33,000  Level Atlanta Center
Thu 12:08:09 PM 35.6036 -83.9697 191° South 469 540 33,000  Level Atlanta Center
Thu 12:09:09 PM 35.4783 -84.0006 191° South 469 540 33,000  Level Atlanta Center
Thu 12:10:09 PM 35.3531 -84.0311 191° South 464 534 33,000  Level Atlanta Center
Thu 12:11:09 PM 35.2258 -84.0642 192° South 469 540 33,000  Level Atlanta Center
Thu 12:12:09 PM 35.1006 -84.0922 190° South 469 540 33,000  Level Atlanta Center
Thu 12:13:09 PM 34.9775 -84.1225 191° South 464 534 33,000  Level Atlanta Center
Thu 12:14:09 PM 34.8481 -84.1528 191° South 469 540 33,000  Level Atlanta Center
Thu 12:15:09 PM 34.7186 -84.1828 191° South 469 540 33,000  Level Atlanta Center
Thu 12:16:09 PM 34.5894 -84.2128 191° South 469 540 33,000  Level Atlanta Center
Thu 12:17:09 PM 34.4661 -84.2453 192° South 469 540 33,000  Level Atlanta Center
Thu 12:18:09 PM 34.3431 -84.2703 190° South 464 534 33,000  Level Atlanta Center
Thu 12:19:09 PM 34.2114 -84.3025 191° South 471 542 33,000  Level Atlanta Center
Thu 12:20:09 PM 34.0861 -84.3297 190° South 466 536 33,000  Level Atlanta Center
Thu 12:21:09 PM 33.9692 -84.3594 192° South 472 543 33,000  Level Atlanta Center
Thu 12:22:09 PM 33.8458 -84.3864 190° South 462 532 33,000  Level Atlanta Center
Thu 12:23:09 PM 33.7247 -84.4133 190° South 462 532 33,000  Level Atlanta Center
Thu 12:24:09 PM 33.6017 -84.4353 188° South 462 532 33,000  Level Atlanta Center
Thu 12:25:09 PM 33.4722 -84.4322 179° South 457 526 33,000  Level Atlanta Center
Thu 12:26:09 PM 33.3492 -84.4317 180° South 451 519 33,000  Level Atlanta Center
Thu 12:27:09 PM 33.2114 -84.4286 179° South 451 519 33,000  Level Atlanta Center
Thu 12:28:09 PM 33.0861 -84.4281 180° South 451 519 33,000  Level Atlanta Center
Thu 12:29:09 PM 32.9608 -84.4225 178° South 451 519 33,000  Level Atlanta Center
Thu 12:30:09 PM 32.8336 -84.4219 180° South 456 525 33,000  Level Atlanta Center
Thu 12:31:09 PM 32.7103 -84.4189 179° South 456 525 33,000  Level Atlanta Center
Thu 12:32:09 PM 32.5831 -84.4161 179° South 456 525 33,000  Level Atlanta Center
Thu 12:33:09 PM 32.4578 -84.4131 179° South 456 525 33,000  Level Atlanta Center
Thu 12:34:09 PM 32.3367 -84.4100 179° South 456 525 33,000  Level Atlanta Center
Thu 12:35:09 PM 32.2136 -84.4094 180° South 451 519 33,000  Level Atlanta Center
Thu 12:36:09 PM 32.0883 -84.4067 179° South 446 513 33,000  Level Atlanta Center
Thu 12:37:09 PM 31.9653 -84.4011 178° South 446 513 33,000  Level Atlanta Center
Thu 12:38:07 PM 31.8464 -84.4017 180° South 445 512 33,000  Level Jacksonville Center
Thu 12:39:07 PM 31.7211 -84.3994 179° South 436 502 33,000  Level Jacksonville Center
Thu 12:40:07 PM 31.5981 -84.3950 178° South 436 502 33,000  Level Jacksonville Center
Thu 12:41:07 PM 31.4750 -84.3908 178° South 436 502 33,000  Level Jacksonville Center
Thu 12:42:07 PM 31.3497 -84.3911 180° South 441 507 33,000  Level Jacksonville Center
Thu 12:43:07 PM 31.2244 -84.3867 178° South 441 507 33,000  Level Jacksonville Center
Thu 12:44:07 PM 31.1014 -84.3847 179° South 441 507 33,000  Level Jacksonville Center
Thu 12:45:07 PM 30.9781 -84.3803 178° South 441 507 33,000 50 Level Jacksonville Center
Thu 12:46:07 PM 30.8531 -84.3758 178° South 441 507 33,100  Climbing Jacksonville Center
Thu 12:47:07 PM 30.7278 -84.3764 180° South 441 507 33,000 -50 Descending Jacksonville Center
Thu 12:48:07 PM 30.6067 -84.3744 179° South 441 507 33,000  Level Jacksonville Center
Thu 12:49:07 PM 30.5006 -84.3344 162° South 428 493 33,000  Level Jacksonville Center
Thu 12:50:07 PM 30.3886 -84.2725 154° Southeast 435 501 33,000  Level Jacksonville Center
Thu 12:51:07 PM 30.2656 -84.2467 170° South 441 507 33,000  Level Jacksonville Center
Thu 12:52:07 PM 30.1342 -84.2447 179° South 458 527 33,000  Level Jacksonville Center
Thu 12:53:07 PM 30.0025 -84.2428 179° South 452 520 33,000 -50 Level Jacksonville Center
Thu 12:54:07 PM 29.8797 -84.2125 168° South 452 520 32,900 50 Descending Jacksonville Center
Thu 12:55:07 PM 29.7758 -84.1656 159° South 436 502 33,100 50 Climbing Jacksonville Center
Thu 12:56:07 PM 29.6742 -84.0878 146° Southeast 436 502 33,000 -150 Descending Jacksonville Center
Thu 12:57:07 PM 29.5728 -84.0031 144° Southeast 446 513 32,800 -500 Descending Jacksonville Center
Thu 12:58:07 PM 29.4689 -83.9231 146° Southeast 446 513 32,000 -800 Descending Jacksonville Center
Thu 12:59:07 PM 29.3653 -83.8361 144° Southeast 458 527 31,200 -800 Descending Jacksonville Center
Thu 01:00:07 PM 29.2594 -83.7542 146° Southeast 458 527 30,400 -800 Descending Jacksonville Center
Thu 01:01:07 PM 29.1578 -83.6678 143° Southeast 463 533 29,600 -800 Descending Jacksonville Center
Thu 01:02:07 PM 29.0539 -83.5861 145° Southeast 463 533 28,800 -850 Descending Jacksonville Center
Thu 01:03:07 PM 28.9478 -83.5000 145° Southeast 463 533 27,900 -850 Descending Jacksonville Center
Thu 01:04:07 PM 28.8439 -83.4189 146° Southeast 463 533 27,100 -735 Descending Jacksonville Center
Thu 01:05:42 PM 28.6881 -83.2933 145° Southeast 439 505 26,000 -735 Descending Miami Center
Thu 01:06:42 PM 28.5875 -83.2144 145° Southeast 434 499 25,200 -900 Descending Miami Center
Thu 01:07:42 PM 28.4886 -83.1403 147° Southeast 434 499 24,200 -950 Descending Miami Center
Thu 01:08:42 PM 28.3997 -83.0694 145° Southeast 422 486 23,300 -900 Descending Miami Center
Thu 01:09:42 PM 28.3153 -83.0011 145° Southeast 399 459 22,400 -850 Descending Miami Center
Thu 01:10:42 PM 28.2283 -82.9350 146° Southeast 387 445 21,600 -650 Descending Miami Center
Thu 01:11:42 PM 28.1436 -82.8669 145° Southeast 381 438 21,100 -300 Descending Miami Center
Thu 01:12:42 PM 28.0608 -82.8039 146° Southeast 374 430 21,000 -500 Descending Miami Center
Thu 01:13:42 PM 27.9778 -82.7383 145° Southeast 374 430 20,100 -950 Descending Miami Center
Thu 01:14:42 PM 27.9014 -82.6686 141° Southeast 361 415 19,100 -900 Descending Miami Center
Thu 01:15:42 PM 27.8489 -82.5769 123° Southeast 342 394 18,300 -800 Descending Miami Center
Thu 01:16:42 PM 27.8425 -82.4756 94° East 311 358 17,500 -850 Descending Miami Center
Thu 01:17:42 PM 27.8528 -82.3658 84° East 317 365 16,600 -850 Descending Miami Center
Thu 01:18:42 PM 27.8797 -82.2639 73° East 334 384 15,800 -1,050 Descending Miami Center
Thu 01:19:42 PM 27.9256 -82.1556 64° Northeast 334 384 14,500 -1,077 Descending Miami Center
Thu 01:21:18 PM 28.0000 -82.0000 62° Northeast 340 391 13,000 -577 Descending Orlando TRACON
Thu 01:22:18 PM 28.0333 -81.9167 66° East 330 380 13,000 -48 Level Orlando TRACON
Thu 01:23:24 PM 28.0833 -81.8167 60° Northeast 332 382 12,900 -304 Descending Orlando TRACON
Thu 01:24:36 PM 28.1333 -81.7000 64° Northeast 326 375 12,300 -750 Descending Orlando TRACON
Thu 01:25:24 PM 28.1500 -81.6167 77° East 314 361 11,400 -1,111 Descending Orlando TRACON
Thu 01:26:24 PM 28.2000 -81.5333 56° Northeast 324 373 10,300 -667 Descending Orlando TRACON
Thu 01:27:30 PM 28.2667 -81.4667 41° Northeast 303 349 10,000 -143 Descending Orlando TRACON
Thu 01:28:30 PM 28.3333 -81.4000 41° Northeast 294 338 10,000 -714 Level Orlando TRACON
Thu 01:29:36 PM 28.4000 -81.3333 41° Northeast 287 330 8,500 -1,429 Descending Orlando TRACON
Thu 01:30:36 PM 28.4667 -81.2833 33° Northeast 277 319 7,000 -1,450 Descending Orlando TRACON
Thu 01:31:36 PM 28.5167 -81.2167 50° Northeast 268 308 5,600 -1,043 Descending Orlando TRACON
Thu 01:32:31 PM 28.5667 -81.1833 30° Northeast 265 305 5,000 -895 Descending Orlando TRACON
Thu 01:33:30 PM 28.6167 -81.1167 49° Northeast 248 285 3,900 -1,050 Descending Orlando TRACON
Thu 01:34:31 PM 28.6667 -81.0833 30° Northeast 225 259 2,900 -942 Descending Orlando TRACON
Thu 01:35:31 PM 28.7167 -81.0667 16° North 202 232 2,000 -526 Descending Orlando TRACON
Thu 01:36:25 PM 28.7667 -81.0500 16° North 188 216 1,900 -150 Descending Orlando TRACON
Thu 01:37:31 PM 28.7833 -81.1167 286° West 179 206 1,700 -500 Descending Orlando TRACON
Thu 01:38:37 PM 28.7833 -81.1833 270° West 155 178 800 -818 Descending Orlando TRACON

Login

Don't have an account? Register now (free) for customized features, flight alerts, and more!